sensor_id;sensor_type;location;lat;lon;timestamp;P1;durP1;ratioP1;P2;durP2;ratioP2
49502;SDS011;35409;48.776;9.204;2023-12-07T00:00:04;11.93;;;7.05;;
49502;SDS011;35409;48.776;9.204;2023-12-07T00:02:30;12.20;;;6.38;;
49502;SDS011;35409;48.776;9.204;2023-12-07T00:04:55;11.35;;;6.63;;
49502;SDS011;35409;48.776;9.204;2023-12-07T00:07:21;11.20;;;7.18;;
49502;SDS011;35409;48.776;9.204;2023-12-07T00:09:46;11.10;;;6.88;;
49502;SDS011;35409;48.776;9.204;2023-12-07T00:12:12;9.02;;;5.82;;
49502;SDS011;35409;48.776;9.204;2023-12-07T00:14:38;10.52;;;6.22;;
49502;SDS011;35409;48.776;9.204;2023-12-07T00:17:03;9.75;;;7.00;;
49502;SDS011;35409;48.776;9.204;2023-12-07T00:19:29;10.55;;;5.68;;
49502;SDS011;35409;48.776;9.204;2023-12-07T00:21:54;9.93;;;5.57;;
49502;SDS011;35409;48.776;9.204;2023-12-07T00:24:20;8.02;;;5.72;;
49502;SDS011;35409;48.776;9.204;2023-12-07T00:26:45;10.15;;;5.75;;
49502;SDS011;35409;48.776;9.204;2023-12-07T00:29:11;9.13;;;5.90;;
49502;SDS011;35409;48.776;9.204;2023-12-07T00:31:37;9.40;;;5.82;;
49502;SDS011;35409;48.776;9.204;2023-12-07T00:34:02;10.07;;;5.90;;
49502;SDS011;35409;48.776;9.204;2023-12-07T00:36:28;10.45;;;5.90;;
49502;SDS011;35409;48.776;9.204;2023-12-07T00:38:54;8.85;;;5.07;;
49502;SDS011;35409;48.776;9.204;2023-12-07T00:41:19;10.18;;;5.70;;
49502;SDS011;35409;48.776;9.204;2023-12-07T00:43:45;7.68;;;5.20;;
49502;SDS011;35409;48.776;9.204;2023-12-07T00:46:10;9.95;;;5.57;;
49502;SDS011;35409;48.776;9.204;2023-12-07T00:48:36;7.57;;;5.30;;
49502;SDS011;35409;48.776;9.204;2023-12-07T00:51:02;12.20;;;6.00;;
49502;SDS011;35409;48.776;9.204;2023-12-07T00:53:28;9.30;;;5.55;;
49502;SDS011;35409;48.776;9.204;2023-12-07T00:55:53;8.27;;;5.40;;
49502;SDS011;35409;48.776;9.204;2023-12-07T00:58:19;12.77;;;5.97;;
49502;SDS011;35409;48.776;9.204;2023-12-07T01:00:44;10.00;;;6.10;;
49502;SDS011;35409;48.776;9.204;2023-12-07T01:03:10;9.32;;;5.70;;
49502;SDS011;35409;48.776;9.204;2023-12-07T01:05:35;10.93;;;5.90;;
49502;SDS011;35409;48.776;9.204;2023-12-07T01:08:01;9.68;;;5.15;;
49502;SDS011;35409;48.776;9.204;2023-12-07T01:10:27;6.82;;;4.60;;
49502;SDS011;35409;48.776;9.204;2023-12-07T01:12:52;9.23;;;5.63;;
49502;SDS011;35409;48.776;9.204;2023-12-07T01:15:18;8.60;;;5.35;;
49502;SDS011;35409;48.776;9.204;2023-12-07T01:17:43;7.82;;;5.15;;
49502;SDS011;35409;48.776;9.204;2023-12-07T01:20:09;7.55;;;5.70;;
49502;SDS011;35409;48.776;9.204;2023-12-07T01:22:41;10.80;;;4.97;;
49502;SDS011;35409;48.776;9.204;2023-12-07T01:25:07;8.77;;;5.60;;
49502;SDS011;35409;48.776;9.204;2023-12-07T01:27:33;9.73;;;5.90;;
49502;SDS011;35409;48.776;9.204;2023-12-07T01:29:59;8.35;;;4.97;;
49502;SDS011;35409;48.776;9.204;2023-12-07T01:32:24;8.65;;;5.78;;
49502;SDS011;35409;48.776;9.204;2023-12-07T01:34:50;9.02;;;5.05;;
49502;SDS011;35409;48.776;9.204;2023-12-07T01:37:15;6.63;;;4.68;;
49502;SDS011;35409;48.776;9.204;2023-12-07T01:39:43;8.48;;;5.07;;
49502;SDS011;35409;48.776;9.204;2023-12-07T01:42:09;5.93;;;3.85;;
49502;SDS011;35409;48.776;9.204;2023-12-07T01:44:37;7.80;;;5.25;;
49502;SDS011;35409;48.776;9.204;2023-12-07T01:47:03;7.15;;;5.00;;
49502;SDS011;35409;48.776;9.204;2023-12-07T01:49:30;7.47;;;4.95;;
49502;SDS011;35409;48.776;9.204;2023-12-07T01:51:56;8.48;;;5.15;;
49502;SDS011;35409;48.776;9.204;2023-12-07T01:54:22;9.82;;;5.43;;
49502;SDS011;35409;48.776;9.204;2023-12-07T01:56:48;7.60;;;4.47;;
49502;SDS011;35409;48.776;9.204;2023-12-07T01:59:14;8.52;;;4.80;;
49502;SDS011;35409;48.776;9.204;2023-12-07T02:01:39;6.95;;;4.75;;
49502;SDS011;35409;48.776;9.204;2023-12-07T02:04:05;6.70;;;4.43;;
49502;SDS011;35409;48.776;9.204;2023-12-07T02:06:31;10.13;;;5.25;;
49502;SDS011;35409;48.776;9.204;2023-12-07T02:08:57;10.90;;;5.20;;
49502;SDS011;35409;48.776;9.204;2023-12-07T02:11:23;11.70;;;5.35;;
49502;SDS011;35409;48.776;9.204;2023-12-07T02:13:49;10.57;;;5.95;;
49502;SDS011;35409;48.776;9.204;2023-12-07T02:16:20;10.02;;;5.30;;
49502;SDS011;35409;48.776;9.204;2023-12-07T02:18:52;6.20;;;4.72;;
49502;SDS011;35409;48.776;9.204;2023-12-07T02:21:34;7.90;;;5.43;;
49502;SDS011;35409;48.776;9.204;2023-12-07T02:24:03;6.82;;;5.13;;
49502;SDS011;35409;48.776;9.204;2023-12-07T02:26:34;8.38;;;5.28;;
49502;SDS011;35409;48.776;9.204;2023-12-07T02:29:02;8.27;;;4.63;;
49502;SDS011;35409;48.776;9.204;2023-12-07T02:31:28;9.27;;;5.43;;
49502;SDS011;35409;48.776;9.204;2023-12-07T02:33:55;8.10;;;4.70;;
49502;SDS011;35409;48.776;9.204;2023-12-07T02:36:22;9.73;;;4.82;;
49502;SDS011;35409;48.776;9.204;2023-12-07T02:38:51;7.57;;;5.15;;
49502;SDS011;35409;48.776;9.204;2023-12-07T02:41:21;8.05;;;4.90;;
49502;SDS011;35409;48.776;9.204;2023-12-07T02:43:47;10.38;;;5.68;;
49502;SDS011;35409;48.776;9.204;2023-12-07T02:46:13;9.05;;;5.90;;
49502;SDS011;35409;48.776;9.204;2023-12-07T02:48:39;10.82;;;6.22;;
49502;SDS011;35409;48.776;9.204;2023-12-07T02:51:04;9.90;;;5.72;;
49502;SDS011;35409;48.776;9.204;2023-12-07T02:53:30;10.63;;;5.47;;
49502;SDS011;35409;48.776;9.204;2023-12-07T02:55:55;12.85;;;6.57;;
49502;SDS011;35409;48.776;9.204;2023-12-07T02:58:21;10.02;;;6.00;;
49502;SDS011;35409;48.776;9.204;2023-12-07T03:00:47;10.75;;;5.90;;
49502;SDS011;35409;48.776;9.204;2023-12-07T03:03:12;10.45;;;5.88;;
49502;SDS011;35409;48.776;9.204;2023-12-07T03:05:38;9.30;;;6.05;;
49502;SDS011;35409;48.776;9.204;2023-12-07T03:08:03;12.10;;;5.57;;
49502;SDS011;35409;48.776;9.204;2023-12-07T03:10:29;9.77;;;5.53;;
49502;SDS011;35409;48.776;9.204;2023-12-07T03:12:54;10.05;;;5.68;;
49502;SDS011;35409;48.776;9.204;2023-12-07T03:15:20;10.65;;;5.90;;
49502;SDS011;35409;48.776;9.204;2023-12-07T03:17:45;9.45;;;4.88;;
49502;SDS011;35409;48.776;9.204;2023-12-07T03:20:11;9.32;;;5.43;;
49502;SDS011;35409;48.776;9.204;2023-12-07T03:22:37;12.20;;;6.05;;
49502;SDS011;35409;48.776;9.204;2023-12-07T03:25:03;12.10;;;6.30;;
49502;SDS011;35409;48.776;9.204;2023-12-07T03:27:29;7.88;;;5.45;;
49502;SDS011;35409;48.776;9.204;2023-12-07T03:29:54;9.90;;;5.50;;
49502;SDS011;35409;48.776;9.204;2023-12-07T03:32:20;11.82;;;5.57;;
49502;SDS011;35409;48.776;9.204;2023-12-07T03:34:45;10.80;;;5.85;;
49502;SDS011;35409;48.776;9.204;2023-12-07T03:37:11;11.55;;;5.75;;
49502;SDS011;35409;48.776;9.204;2023-12-07T03:39:37;9.73;;;5.60;;
49502;SDS011;35409;48.776;9.204;2023-12-07T03:42:02;8.52;;;5.45;;
49502;SDS011;35409;48.776;9.204;2023-12-07T03:44:28;8.88;;;5.22;;
49502;SDS011;35409;48.776;9.204;2023-12-07T03:46:54;11.13;;;5.47;;
49502;SDS011;35409;48.776;9.204;2023-12-07T03:49:20;9.98;;;5.53;;
49502;SDS011;35409;48.776;9.204;2023-12-07T03:51:46;10.00;;;5.18;;
49502;SDS011;35409;48.776;9.204;2023-12-07T03:54:11;8.80;;;5.43;;
49502;SDS011;35409;48.776;9.204;2023-12-07T03:56:37;10.13;;;6.05;;
49502;SDS011;35409;48.776;9.204;2023-12-07T03:59:02;10.18;;;5.68;;
49502;SDS011;35409;48.776;9.204;2023-12-07T04:01:28;10.35;;;5.40;;
49502;SDS011;35409;48.776;9.204;2023-12-07T04:03:54;10.15;;;5.65;;
49502;SDS011;35409;48.776;9.204;2023-12-07T04:06:22;10.48;;;5.97;;
49502;SDS011;35409;48.776;9.204;2023-12-07T04:08:48;11.80;;;6.30;;
49502;SDS011;35409;48.776;9.204;2023-12-07T04:11:14;7.95;;;5.43;;
49502;SDS011;35409;48.776;9.204;2023-12-07T04:13:40;12.15;;;6.70;;
49502;SDS011;35409;48.776;9.204;2023-12-07T04:16:07;13.73;;;6.65;;
49502;SDS011;35409;48.776;9.204;2023-12-07T04:18:33;10.65;;;6.55;;
49502;SDS011;35409;48.776;9.204;2023-12-07T04:20:59;11.75;;;6.18;;
49502;SDS011;35409;48.776;9.204;2023-12-07T04:23:24;11.45;;;6.65;;
49502;SDS011;35409;48.776;9.204;2023-12-07T04:25:50;11.45;;;6.78;;
49502;SDS011;35409;48.776;9.204;2023-12-07T04:28:16;12.07;;;6.38;;
49502;SDS011;35409;48.776;9.204;2023-12-07T04:30:42;11.30;;;6.57;;
49502;SDS011;35409;48.776;9.204;2023-12-07T04:33:07;10.55;;;7.00;;
49502;SDS011;35409;48.776;9.204;2023-12-07T04:35:33;11.82;;;6.57;;
49502;SDS011;35409;48.776;9.204;2023-12-07T04:37:59;11.18;;;6.63;;
49502;SDS011;35409;48.776;9.204;2023-12-07T04:40:25;12.48;;;7.95;;
49502;SDS011;35409;48.776;9.204;2023-12-07T04:42:50;13.88;;;7.82;;
49502;SDS011;35409;48.776;9.204;2023-12-07T04:45:16;15.55;;;8.25;;
49502;SDS011;35409;48.776;9.204;2023-12-07T04:47:42;14.35;;;8.27;;
49502;SDS011;35409;48.776;9.204;2023-12-07T04:50:07;12.38;;;8.10;;
49502;SDS011;35409;48.776;9.204;2023-12-07T04:52:34;15.13;;;8.25;;
49502;SDS011;35409;48.776;9.204;2023-12-07T04:55:00;15.35;;;8.88;;
49502;SDS011;35409;48.776;9.204;2023-12-07T04:57:26;15.05;;;8.70;;
49502;SDS011;35409;48.776;9.204;2023-12-07T04:59:51;18.13;;;8.65;;
49502;SDS011;35409;48.776;9.204;2023-12-07T05:02:17;12.77;;;8.07;;
49502;SDS011;35409;48.776;9.204;2023-12-07T05:04:43;15.52;;;9.05;;
49502;SDS011;35409;48.776;9.204;2023-12-07T05:07:10;14.00;;;8.48;;
49502;SDS011;35409;48.776;9.204;2023-12-07T05:09:39;13.48;;;7.88;;
49502;SDS011;35409;48.776;9.204;2023-12-07T05:12:05;13.13;;;7.57;;
49502;SDS011;35409;48.776;9.204;2023-12-07T05:14:31;13.10;;;7.95;;
49502;SDS011;35409;48.776;9.204;2023-12-07T05:16:57;14.00;;;8.13;;
49502;SDS011;35409;48.776;9.204;2023-12-07T05:19:23;14.77;;;8.23;;
49502;SDS011;35409;48.776;9.204;2023-12-07T05:21:49;14.23;;;8.10;;
49502;SDS011;35409;48.776;9.204;2023-12-07T05:24:16;17.00;;;8.82;;
49502;SDS011;35409;48.776;9.204;2023-12-07T05:26:42;14.65;;;8.70;;
49502;SDS011;35409;48.776;9.204;2023-12-07T05:29:08;19.17;;;9.18;;
49502;SDS011;35409;48.776;9.204;2023-12-07T05:31:35;18.58;;;9.30;;
49502;SDS011;35409;48.776;9.204;2023-12-07T05:34:01;15.13;;;9.07;;
49502;SDS011;35409;48.776;9.204;2023-12-07T05:36:27;17.52;;;9.93;;
49502;SDS011;35409;48.776;9.204;2023-12-07T05:38:52;18.02;;;10.38;;
49502;SDS011;35409;48.776;9.204;2023-12-07T05:41:18;18.45;;;10.55;;
49502;SDS011;35409;48.776;9.204;2023-12-07T05:43:44;18.02;;;10.57;;
49502;SDS011;35409;48.776;9.204;2023-12-07T05:46:09;19.25;;;10.30;;
49502;SDS011;35409;48.776;9.204;2023-12-07T05:48:35;20.77;;;10.65;;
49502;SDS011;35409;48.776;9.204;2023-12-07T05:51:01;19.70;;;10.50;;
49502;SDS011;35409;48.776;9.204;2023-12-07T05:53:27;21.27;;;10.63;;
49502;SDS011;35409;48.776;9.204;2023-12-07T05:55:54;18.67;;;10.35;;
49502;SDS011;35409;48.776;9.204;2023-12-07T05:58:19;21.88;;;10.57;;
49502;SDS011;35409;48.776;9.204;2023-12-07T06:00:45;19.63;;;10.50;;
49502;SDS011;35409;48.776;9.204;2023-12-07T06:03:12;21.17;;;10.63;;
49502;SDS011;35409;48.776;9.204;2023-12-07T06:05:38;21.52;;;10.20;;
49502;SDS011;35409;48.776;9.204;2023-12-07T06:08:04;17.55;;;9.40;;
49502;SDS011;35409;48.776;9.204;2023-12-07T06:10:30;16.25;;;9.57;;
49502;SDS011;35409;48.776;9.204;2023-12-07T06:12:56;16.83;;;9.45;;
49502;SDS011;35409;48.776;9.204;2023-12-07T06:15:23;18.92;;;9.60;;
49502;SDS011;35409;48.776;9.204;2023-12-07T06:17:49;28.75;;;12.63;;
49502;SDS011;35409;48.776;9.204;2023-12-07T06:20:14;22.75;;;12.00;;
49502;SDS011;35409;48.776;9.204;2023-12-07T06:22:40;20.95;;;11.52;;
49502;SDS011;35409;48.776;9.204;2023-12-07T06:25:06;20.17;;;10.77;;
49502;SDS011;35409;48.776;9.204;2023-12-07T06:27:33;24.38;;;11.07;;
49502;SDS011;35409;48.776;9.204;2023-12-07T06:30:00;22.90;;;11.88;;
49502;SDS011;35409;48.776;9.204;2023-12-07T06:32:26;18.83;;;10.15;;
49502;SDS011;35409;48.776;9.204;2023-12-07T06:34:51;21.92;;;11.10;;
49502;SDS011;35409;48.776;9.204;2023-12-07T06:37:17;20.60;;;11.50;;
49502;SDS011;35409;48.776;9.204;2023-12-07T06:39:42;22.10;;;11.25;;
49502;SDS011;35409;48.776;9.204;2023-12-07T06:42:08;22.13;;;11.95;;
49502;SDS011;35409;48.776;9.204;2023-12-07T06:44:34;19.75;;;11.68;;
49502;SDS011;35409;48.776;9.204;2023-12-07T06:47:00;24.70;;;12.30;;
49502;SDS011;35409;48.776;9.204;2023-12-07T06:49:28;22.85;;;11.57;;
49502;SDS011;35409;48.776;9.204;2023-12-07T06:51:56;21.92;;;11.15;;
49502;SDS011;35409;48.776;9.204;2023-12-07T06:54:21;23.20;;;11.15;;
49502;SDS011;35409;48.776;9.204;2023-12-07T06:56:47;22.73;;;11.07;;
49502;SDS011;35409;48.776;9.204;2023-12-07T06:59:13;20.45;;;10.75;;
49502;SDS011;35409;48.776;9.204;2023-12-07T07:01:39;22.17;;;11.20;;
49502;SDS011;35409;48.776;9.204;2023-12-07T07:04:05;19.83;;;10.57;;
49502;SDS011;35409;48.776;9.204;2023-12-07T07:06:31;20.00;;;11.82;;
49502;SDS011;35409;48.776;9.204;2023-12-07T07:08:56;22.85;;;12.23;;
49502;SDS011;35409;48.776;9.204;2023-12-07T07:11:22;22.17;;;12.32;;
49502;SDS011;35409;48.776;9.204;2023-12-07T07:13:47;20.30;;;11.50;;
49502;SDS011;35409;48.776;9.204;2023-12-07T07:16:13;21.00;;;11.48;;
49502;SDS011;35409;48.776;9.204;2023-12-07T07:18:39;24.83;;;12.35;;
49502;SDS011;35409;48.776;9.204;2023-12-07T07:21:05;25.30;;;12.25;;
49502;SDS011;35409;48.776;9.204;2023-12-07T07:23:31;20.42;;;11.38;;
49502;SDS011;35409;48.776;9.204;2023-12-07T07:25:57;21.73;;;12.60;;
49502;SDS011;35409;48.776;9.204;2023-12-07T07:28:22;22.00;;;11.30;;
49502;SDS011;35409;48.776;9.204;2023-12-07T07:30:48;23.60;;;12.73;;
49502;SDS011;35409;48.776;9.204;2023-12-07T07:33:13;21.63;;;12.77;;
49502;SDS011;35409;48.776;9.204;2023-12-07T07:35:39;25.23;;;13.60;;
49502;SDS011;35409;48.776;9.204;2023-12-07T07:38:05;21.77;;;12.65;;
49502;SDS011;35409;48.776;9.204;2023-12-07T07:40:30;24.25;;;13.02;;
49502;SDS011;35409;48.776;9.204;2023-12-07T07:42:56;25.13;;;12.93;;
49502;SDS011;35409;48.776;9.204;2023-12-07T07:45:21;28.85;;;12.02;;
49502;SDS011;35409;48.776;9.204;2023-12-07T07:47:47;25.70;;;12.98;;
49502;SDS011;35409;48.776;9.204;2023-12-07T07:50:12;25.15;;;12.65;;
49502;SDS011;35409;48.776;9.204;2023-12-07T07:52:38;19.02;;;11.60;;
49502;SDS011;35409;48.776;9.204;2023-12-07T07:55:05;23.90;;;12.77;;
49502;SDS011;35409;48.776;9.204;2023-12-07T07:57:31;27.80;;;12.77;;
49502;SDS011;35409;48.776;9.204;2023-12-07T07:59:57;22.75;;;12.63;;
49502;SDS011;35409;48.776;9.204;2023-12-07T08:02:23;20.90;;;12.15;;
49502;SDS011;35409;48.776;9.204;2023-12-07T08:04:49;26.52;;;12.30;;
49502;SDS011;35409;48.776;9.204;2023-12-07T08:07:16;26.50;;;13.40;;
49502;SDS011;35409;48.776;9.204;2023-12-07T08:09:42;20.50;;;11.95;;
49502;SDS011;35409;48.776;9.204;2023-12-07T08:12:08;23.35;;;12.93;;
49502;SDS011;35409;48.776;9.204;2023-12-07T08:14:36;22.77;;;13.27;;
49502;SDS011;35409;48.776;9.204;2023-12-07T08:17:03;22.33;;;13.43;;
49502;SDS011;35409;48.776;9.204;2023-12-07T08:19:29;22.10;;;13.02;;
49502;SDS011;35409;48.776;9.204;2023-12-07T08:21:54;24.60;;;13.50;;
49502;SDS011;35409;48.776;9.204;2023-12-07T08:24:20;24.88;;;12.95;;
49502;SDS011;35409;48.776;9.204;2023-12-07T08:26:45;24.35;;;14.00;;
49502;SDS011;35409;48.776;9.204;2023-12-07T08:29:11;25.77;;;13.18;;
49502;SDS011;35409;48.776;9.204;2023-12-07T08:31:37;23.60;;;12.80;;
49502;SDS011;35409;48.776;9.204;2023-12-07T08:34:05;22.23;;;13.60;;
49502;SDS011;35409;48.776;9.204;2023-12-07T08:36:30;22.55;;;13.98;;
49502;SDS011;35409;48.776;9.204;2023-12-07T08:38:56;22.60;;;13.40;;
49502;SDS011;35409;48.776;9.204;2023-12-07T08:41:21;19.98;;;12.38;;
49502;SDS011;35409;48.776;9.204;2023-12-07T08:43:47;24.08;;;12.68;;
49502;SDS011;35409;48.776;9.204;2023-12-07T08:46:13;20.67;;;12.77;;
49502;SDS011;35409;48.776;9.204;2023-12-07T08:48:38;22.88;;;13.25;;
49502;SDS011;35409;48.776;9.204;2023-12-07T08:51:04;24.23;;;13.55;;
49502;SDS011;35409;48.776;9.204;2023-12-07T08:53:29;21.83;;;12.65;;
49502;SDS011;35409;48.776;9.204;2023-12-07T08:55:55;21.35;;;13.30;;
49502;SDS011;35409;48.776;9.204;2023-12-07T08:58:21;19.65;;;11.65;;
49502;SDS011;35409;48.776;9.204;2023-12-07T09:00:46;19.27;;;10.90;;
49502;SDS011;35409;48.776;9.204;2023-12-07T09:03:12;21.83;;;12.05;;
49502;SDS011;35409;48.776;9.204;2023-12-07T09:05:38;16.77;;;10.93;;
49502;SDS011;35409;48.776;9.204;2023-12-07T09:08:04;18.00;;;11.95;;
49502;SDS011;35409;48.776;9.204;2023-12-07T09:10:29;23.48;;;13.55;;
49502;SDS011;35409;48.776;9.204;2023-12-07T09:12:55;25.20;;;14.50;;
49502;SDS011;35409;48.776;9.204;2023-12-07T09:15:21;24.48;;;13.88;;
49502;SDS011;35409;48.776;9.204;2023-12-07T09:17:47;24.27;;;14.30;;
49502;SDS011;35409;48.776;9.204;2023-12-07T09:20:13;23.27;;;14.35;;
49502;SDS011;35409;48.776;9.204;2023-12-07T09:22:45;27.00;;;15.05;;
49502;SDS011;35409;48.776;9.204;2023-12-07T09:25:13;19.38;;;13.20;;
49502;SDS011;35409;48.776;9.204;2023-12-07T09:27:42;24.75;;;14.35;;
49502;SDS011;35409;48.776;9.204;2023-12-07T09:30:09;20.23;;;13.40;;
49502;SDS011;35409;48.776;9.204;2023-12-07T09:32:38;24.30;;;13.73;;
49502;SDS011;35409;48.776;9.204;2023-12-07T09:35:04;19.85;;;12.95;;
49502;SDS011;35409;48.776;9.204;2023-12-07T09:37:35;21.67;;;13.65;;
49502;SDS011;35409;48.776;9.204;2023-12-07T09:40:01;20.10;;;12.82;;
49502;SDS011;35409;48.776;9.204;2023-12-07T09:42:29;19.58;;;12.68;;
49502;SDS011;35409;48.776;9.204;2023-12-07T09:44:55;23.58;;;14.35;;
49502;SDS011;35409;48.776;9.204;2023-12-07T09:47:20;21.50;;;14.25;;
49502;SDS011;35409;48.776;9.204;2023-12-07T09:49:46;20.13;;;12.00;;
49502;SDS011;35409;48.776;9.204;2023-12-07T09:52:12;21.48;;;12.30;;
49502;SDS011;35409;48.776;9.204;2023-12-07T09:54:42;21.67;;;11.98;;
49502;SDS011;35409;48.776;9.204;2023-12-07T09:59:35;21.98;;;11.65;;
49502;SDS011;35409;48.776;9.204;2023-12-07T10:02:01;25.65;;;14.25;;
49502;SDS011;35409;48.776;9.204;2023-12-07T10:04:27;20.88;;;12.90;;
49502;SDS011;35409;48.776;9.204;2023-12-07T10:06:53;20.42;;;12.93;;
49502;SDS011;35409;48.776;9.204;2023-12-07T10:09:19;20.75;;;11.93;;
49502;SDS011;35409;48.776;9.204;2023-12-07T10:11:46;21.23;;;12.77;;
49502;SDS011;35409;48.776;9.204;2023-12-07T10:14:13;19.15;;;12.50;;
49502;SDS011;35409;48.776;9.204;2023-12-07T10:16:39;20.33;;;12.57;;
49502;SDS011;35409;48.776;9.204;2023-12-07T10:19:18;18.63;;;11.32;;
49502;SDS011;35409;48.776;9.204;2023-12-07T10:21:46;17.05;;;11.48;;
49502;SDS011;35409;48.776;9.204;2023-12-07T10:24:13;17.20;;;10.63;;
49502;SDS011;35409;48.776;9.204;2023-12-07T10:26:40;18.40;;;10.07;;
49502;SDS011;35409;48.776;9.204;2023-12-07T10:29:06;17.63;;;10.38;;
49502;SDS011;35409;48.776;9.204;2023-12-07T10:31:32;18.00;;;11.27;;
49502;SDS011;35409;48.776;9.204;2023-12-07T10:33:59;20.17;;;11.30;;
49502;SDS011;35409;48.776;9.204;2023-12-07T10:36:25;16.60;;;10.27;;
49502;SDS011;35409;48.776;9.204;2023-12-07T10:38:51;18.38;;;11.40;;
49502;SDS011;35409;48.776;9.204;2023-12-07T10:41:18;18.75;;;10.85;;
49502;SDS011;35409;48.776;9.204;2023-12-07T10:43:47;15.75;;;8.35;;
49502;SDS011;35409;48.776;9.204;2023-12-07T10:46:16;15.57;;;7.75;;
49502;SDS011;35409;48.776;9.204;2023-12-07T10:48:45;10.75;;;7.03;;
49502;SDS011;35409;48.776;9.204;2023-12-07T10:51:17;15.45;;;7.50;;
49502;SDS011;35409;48.776;9.204;2023-12-07T10:53:52;14.55;;;7.50;;
49502;SDS011;35409;48.776;9.204;2023-12-07T10:56:24;12.30;;;5.85;;
49502;SDS011;35409;48.776;9.204;2023-12-07T10:58:57;10.32;;;5.40;;
49502;SDS011;35409;48.776;9.204;2023-12-07T11:01:23;9.52;;;4.97;;
49502;SDS011;35409;48.776;9.204;2023-12-07T11:03:50;6.32;;;4.68;;
49502;SDS011;35409;48.776;9.204;2023-12-07T11:06:20;9.18;;;4.70;;
49502;SDS011;35409;48.776;9.204;2023-12-07T11:08:52;7.00;;;4.03;;
49502;SDS011;35409;48.776;9.204;2023-12-07T11:14:06;6.43;;;4.28;;
49502;SDS011;35409;48.776;9.204;2023-12-07T11:16:32;7.13;;;4.03;;
49502;SDS011;35409;48.776;9.204;2023-12-07T11:19:00;7.45;;;4.90;;
49502;SDS011;35409;48.776;9.204;2023-12-07T11:21:26;9.15;;;4.22;;
49502;SDS011;35409;48.776;9.204;2023-12-07T11:23:53;6.03;;;3.95;;
49502;SDS011;35409;48.776;9.204;2023-12-07T11:26:25;4.25;;;3.55;;
49502;SDS011;35409;48.776;9.204;2023-12-07T11:28:51;6.47;;;4.15;;
49502;SDS011;35409;48.776;9.204;2023-12-07T11:31:19;7.93;;;4.28;;
49502;SDS011;35409;48.776;9.204;2023-12-07T11:33:46;7.15;;;4.13;;
49502;SDS011;35409;48.776;9.204;2023-12-07T11:36:12;4.25;;;3.30;;
49502;SDS011;35409;48.776;9.204;2023-12-07T11:41:42;6.60;;;3.75;;
49502;SDS011;35409;48.776;9.204;2023-12-07T11:44:10;5.68;;;3.13;;
49502;SDS011;35409;48.776;9.204;2023-12-07T11:46:39;4.50;;;3.40;;
49502;SDS011;35409;48.776;9.204;2023-12-07T11:49:04;4.85;;;3.50;;
49502;SDS011;35409;48.776;9.204;2023-12-07T11:51:35;6.32;;;2.92;;
49502;SDS011;35409;48.776;9.204;2023-12-07T11:54:01;4.45;;;2.72;;
49502;SDS011;35409;48.776;9.204;2023-12-07T11:56:27;4.93;;;3.83;;
49502;SDS011;35409;48.776;9.204;2023-12-07T11:58:52;4.22;;;3.35;;
49502;SDS011;35409;48.776;9.204;2023-12-07T12:01:18;5.32;;;3.65;;
49502;SDS011;35409;48.776;9.204;2023-12-07T12:03:44;4.90;;;3.80;;
49502;SDS011;35409;48.776;9.204;2023-12-07T12:06:09;5.65;;;4.13;;
49502;SDS011;35409;48.776;9.204;2023-12-07T12:08:36;5.72;;;4.03;;
49502;SDS011;35409;48.776;9.204;2023-12-07T12:11:02;6.05;;;3.97;;
49502;SDS011;35409;48.776;9.204;2023-12-07T12:13:29;9.15;;;5.25;;
49502;SDS011;35409;48.776;9.204;2023-12-07T12:16:00;8.68;;;5.05;;
49502;SDS011;35409;48.776;9.204;2023-12-07T12:18:26;7.60;;;5.20;;
49502;SDS011;35409;48.776;9.204;2023-12-07T12:20:52;8.63;;;4.40;;
49502;SDS011;35409;48.776;9.204;2023-12-07T12:23:19;7.60;;;4.90;;
49502;SDS011;35409;48.776;9.204;2023-12-07T12:25:45;8.40;;;5.22;;
49502;SDS011;35409;48.776;9.204;2023-12-07T12:28:11;6.20;;;4.10;;
49502;SDS011;35409;48.776;9.204;2023-12-07T12:30:41;7.68;;;4.55;;
49502;SDS011;35409;48.776;9.204;2023-12-07T12:33:07;6.82;;;3.90;;
49502;SDS011;35409;48.776;9.204;2023-12-07T12:35:32;8.45;;;4.90;;
49502;SDS011;35409;48.776;9.204;2023-12-07T12:37:58;8.50;;;5.15;;
49502;SDS011;35409;48.776;9.204;2023-12-07T12:40:26;9.13;;;5.20;;
49502;SDS011;35409;48.776;9.204;2023-12-07T12:42:54;9.25;;;4.88;;
49502;SDS011;35409;48.776;9.204;2023-12-07T12:45:20;8.57;;;5.13;;
49502;SDS011;35409;48.776;9.204;2023-12-07T12:47:47;9.18;;;4.78;;
49502;SDS011;35409;48.776;9.204;2023-12-07T12:50:33;10.25;;;5.55;;
49502;SDS011;35409;48.776;9.204;2023-12-07T12:53:04;9.88;;;6.10;;
49502;SDS011;35409;48.776;9.204;2023-12-07T12:55:38;7.63;;;5.18;;
49502;SDS011;35409;48.776;9.204;2023-12-07T12:58:08;6.40;;;4.68;;
49502;SDS011;35409;48.776;9.204;2023-12-07T13:00:38;10.30;;;4.43;;
49502;SDS011;35409;48.776;9.204;2023-12-07T13:03:05;7.95;;;4.93;;
49502;SDS011;35409;48.776;9.204;2023-12-07T13:05:31;7.32;;;4.63;;
49502;SDS011;35409;48.776;9.204;2023-12-07T13:07:59;8.10;;;4.65;;
49502;SDS011;35409;48.776;9.204;2023-12-07T13:10:25;9.20;;;5.00;;
49502;SDS011;35409;48.776;9.204;2023-12-07T13:12:51;8.07;;;5.28;;
49502;SDS011;35409;48.776;9.204;2023-12-07T13:15:16;9.07;;;5.63;;
49502;SDS011;35409;48.776;9.204;2023-12-07T13:17:42;8.68;;;4.60;;
49502;SDS011;35409;48.776;9.204;2023-12-07T13:20:09;7.93;;;4.78;;
49502;SDS011;35409;48.776;9.204;2023-12-07T13:22:36;5.45;;;4.13;;
49502;SDS011;35409;48.776;9.204;2023-12-07T13:25:02;6.45;;;4.40;;
49502;SDS011;35409;48.776;9.204;2023-12-07T13:27:28;7.47;;;4.60;;
49502;SDS011;35409;48.776;9.204;2023-12-07T13:29:54;16.02;;;5.18;;
49502;SDS011;35409;48.776;9.204;2023-12-07T13:32:19;8.68;;;4.38;;
49502;SDS011;35409;48.776;9.204;2023-12-07T13:34:45;6.25;;;3.97;;
49502;SDS011;35409;48.776;9.204;2023-12-07T13:37:11;8.45;;;4.32;;
49502;SDS011;35409;48.776;9.204;2023-12-07T13:39:36;6.85;;;4.00;;
49502;SDS011;35409;48.776;9.204;2023-12-07T13:42:03;8.20;;;4.90;;
49502;SDS011;35409;48.776;9.204;2023-12-07T13:44:28;6.97;;;4.55;;
49502;SDS011;35409;48.776;9.204;2023-12-07T13:46:56;8.30;;;4.38;;
49502;SDS011;35409;48.776;9.204;2023-12-07T13:49:21;7.32;;;3.88;;
49502;SDS011;35409;48.776;9.204;2023-12-07T13:51:47;7.60;;;4.53;;
49502;SDS011;35409;48.776;9.204;2023-12-07T13:54:12;7.47;;;4.55;;
49502;SDS011;35409;48.776;9.204;2023-12-07T13:56:38;8.00;;;4.68;;
49502;SDS011;35409;48.776;9.204;2023-12-07T13:59:04;7.07;;;4.47;;
49502;SDS011;35409;48.776;9.204;2023-12-07T14:01:32;10.77;;;5.38;;
49502;SDS011;35409;48.776;9.204;2023-12-07T14:03:58;9.60;;;4.50;;
49502;SDS011;35409;48.776;9.204;2023-12-07T14:06:24;3.33;;;2.30;;
49502;SDS011;35409;48.776;9.204;2023-12-07T14:08:50;3.50;;;2.10;;
49502;SDS011;35409;48.776;9.204;2023-12-07T14:11:18;4.50;;;2.03;;
49502;SDS011;35409;48.776;9.204;2023-12-07T14:13:44;4.55;;;2.15;;
49502;SDS011;35409;48.776;9.204;2023-12-07T14:16:12;2.67;;;1.75;;
49502;SDS011;35409;48.776;9.204;2023-12-07T14:18:37;3.38;;;1.60;;
49502;SDS011;35409;48.776;9.204;2023-12-07T14:21:03;1.73;;;1.17;;
49502;SDS011;35409;48.776;9.204;2023-12-07T14:23:29;2.85;;;1.50;;
49502;SDS011;35409;48.776;9.204;2023-12-07T14:25:55;3.50;;;1.85;;
49502;SDS011;35409;48.776;9.204;2023-12-07T14:28:23;6.47;;;2.22;;
49502;SDS011;35409;48.776;9.204;2023-12-07T14:30:49;3.05;;;1.63;;
49502;SDS011;35409;48.776;9.204;2023-12-07T14:33:21;3.05;;;1.52;;
49502;SDS011;35409;48.776;9.204;2023-12-07T14:35:47;3.15;;;1.58;;
49502;SDS011;35409;48.776;9.204;2023-12-07T14:38:13;3.00;;;1.60;;